createdAt,value
2022-10-28T00:01:34.183Z,76.75
2022-10-28T00:04:06.873Z,76.55
2022-10-28T00:06:39.781Z,76.61
2022-10-28T00:09:12.391Z,76.31
2022-10-28T00:11:44.644Z,76.19
2022-10-28T00:14:19.042Z,76.57
2022-10-28T00:16:51.207Z,76.52
2022-10-28T00:19:23.392Z,76.23
2022-10-28T00:21:55.576Z,76.65
2022-10-28T00:24:28.356Z,76.47
2022-10-28T00:27:00.649Z,76.52
2022-10-28T00:29:33.074Z,76.61
2022-10-28T00:32:05.123Z,76.57
2022-10-28T00:34:37.215Z,76.31
2022-10-28T00:37:09.326Z,76.48
2022-10-28T00:39:41.427Z,77.27
2022-10-28T00:42:22.301Z,78.11
2022-10-28T00:44:58.795Z,78.53
2022-10-28T00:47:52.610Z,78.52
2022-10-28T00:50:40.077Z,78.47
2022-10-28T00:53:16.829Z,77.91
2022-10-28T00:55:50.761Z,77.26
2022-10-28T00:58:26.109Z,77.04
2022-10-28T01:00:58.497Z,76.97
2022-10-28T01:03:31.069Z,76.68
2022-10-28T01:06:03.767Z,77.18
2022-10-28T01:08:35.890Z,77.54
2022-10-28T01:11:34.136Z,76.81
2022-10-28T01:14:18.591Z,76.60
2022-10-28T01:17:02.516Z,76.55
2022-10-28T01:20:07.435Z,76.96
2022-10-28T01:22:46.843Z,77.29
2022-10-28T01:25:40.910Z,77.33
2022-10-28T01:28:27.842Z,77.65
2022-10-28T01:31:20.784Z,77.71
2022-10-28T01:33:59.066Z,77.92
2022-10-28T01:36:40.362Z,77.99
2022-10-28T01:39:21.238Z,77.64
2022-10-28T01:41:57.702Z,77.63
2022-10-28T01:44:38.950Z,77.39
2022-10-28T01:47:15.768Z,77.58
2022-10-28T01:49:53.243Z,77.69
2022-10-28T01:52:30.137Z,77.80
2022-10-28T01:55:07.827Z,77.73
2022-10-28T01:57:42.954Z,77.59
2022-10-28T02:00:16.811Z,77.34
2022-10-28T02:02:50.728Z,77.38
2022-10-28T02:05:44.613Z,77.26
2022-10-28T02:08:34.898Z,77.15
2022-10-28T02:11:26.637Z,77.34
2022-10-28T02:14:08.587Z,77.80
2022-10-28T02:16:49.688Z,77.69
2022-10-28T02:19:34.968Z,77.55
2022-10-28T02:22:19.853Z,77.27
2022-10-28T02:25:03.161Z,77.18
2022-10-28T02:27:41.396Z,77.54
2022-10-28T02:30:18.568Z,77.69
2022-10-28T02:32:55.644Z,77.69
2022-10-28T02:35:33.431Z,77.90
2022-10-28T02:38:09.791Z,77.78
2022-10-28T02:40:44.622Z,78.22
2022-10-28T02:43:15.806Z,78.23
2022-10-28T02:45:52.579Z,78.04
2022-10-28T02:48:30.516Z,78.30
2022-10-28T02:51:08.880Z,78.67
2022-10-28T02:53:49.186Z,78.65
2022-10-28T02:56:22.948Z,78.78
2022-10-28T02:58:55.294Z,78.96
2022-10-28T03:01:27.957Z,79.08
2022-10-28T03:04:00.553Z,79.13
2022-10-28T03:06:33.647Z,79.15
2022-10-28T03:09:06.289Z,79.21
2022-10-28T03:11:38.476Z,78.97
2022-10-28T03:14:13.177Z,78.97
2022-10-28T03:16:47.344Z,78.89
2022-10-28T03:19:19.287Z,78.88
2022-10-28T03:21:51.488Z,79.08
2022-10-28T03:24:23.490Z,80.19
2022-10-28T03:26:55.572Z,80.74
2022-10-28T03:29:27.694Z,83.09
2022-10-28T03:32:00.323Z,83.96
2022-10-28T03:34:32.849Z,84.21
2022-10-28T03:37:04.817Z,84.06
2022-10-28T03:39:37.012Z,84.25
2022-10-28T03:42:09.133Z,83.89
2022-10-28T03:44:41.198Z,83.85
2022-10-28T03:47:13.536Z,83.95
2022-10-28T03:49:45.902Z,84.18
2022-10-28T03:52:17.805Z,84.03
2022-10-28T03:54:50.334Z,83.96
2022-10-28T03:57:22.339Z,83.55
2022-10-28T03:59:54.995Z,83.28
2022-10-28T04:02:27.810Z,83.33
2022-10-28T04:05:00.104Z,83.71
2022-10-28T04:07:33.740Z,84.01
2022-10-28T04:10:06.527Z,84.35
2022-10-28T04:12:38.548Z,84.12
2022-10-28T04:15:11.732Z,84.01
2022-10-28T04:17:43.689Z,84.75
2022-10-28T04:20:16.024Z,85.10
2022-10-28T04:22:47.970Z,84.48
2022-10-28T04:25:20.009Z,84.21
2022-10-28T04:27:52.301Z,84.13
2022-10-28T04:30:25.518Z,84.08
2022-10-28T04:32:57.885Z,84.42
2022-10-28T04:35:30.307Z,84.34
2022-10-28T04:38:04.864Z,84.31
2022-10-28T04:40:36.945Z,84.16
2022-10-28T04:43:10.430Z,84.47
2022-10-28T04:45:42.843Z,84.34
2022-10-28T04:48:15.186Z,84.54
2022-10-28T04:50:47.468Z,84.56
2022-10-28T04:53:19.374Z,84.51
2022-10-28T04:55:51.438Z,84.64
2022-10-28T04:58:23.608Z,84.92
2022-10-28T05:00:56.043Z,85.03
2022-10-28T05:03:28.199Z,85.29
2022-10-28T05:06:01.086Z,84.84
2022-10-28T05:08:32.986Z,84.70
2022-10-28T05:11:05.673Z,84.22
2022-10-28T05:13:37.762Z,84.05
2022-10-28T05:16:10.994Z,83.83
2022-10-28T05:21:19.950Z,83.74
2022-10-28T05:23:51.891Z,83.22
2022-10-28T05:26:24.289Z,83.21
2022-10-28T05:28:56.567Z,82.77
2022-10-28T05:31:29.095Z,82.94
2022-10-28T05:34:04.359Z,82.34
2022-10-28T05:36:37.003Z,82.69
2022-10-28T05:39:09.256Z,82.87
2022-10-28T05:41:42.297Z,82.55
2022-10-28T05:44:14.282Z,82.98
2022-10-28T05:46:46.224Z,83.62
2022-10-28T05:49:20.532Z,84.01
2022-10-28T05:51:52.720Z,84.32
2022-10-28T05:54:24.718Z,84.22
2022-10-28T05:56:57.116Z,84.44
2022-10-28T05:59:29.469Z,84.83
2022-10-28T06:02:01.681Z,85.23
2022-10-28T06:04:35.843Z,85.38
2022-10-28T06:07:08.034Z,85.01
2022-10-28T06:09:40.303Z,85.25
2022-10-28T06:12:11.080Z,84.87
2022-10-28T06:14:43.512Z,84.79
2022-10-28T06:17:15.751Z,85.11
2022-10-28T06:19:47.921Z,85.53
2022-10-28T06:22:19.936Z,86.04
2022-10-28T06:24:51.998Z,86.32
2022-10-28T06:27:24.431Z,87.41
2022-10-28T06:29:56.451Z,87.22
2022-10-28T06:32:28.749Z,87.19
2022-10-28T06:35:00.962Z,87.12
2022-10-28T06:37:33.308Z,86.75
2022-10-28T06:40:07.509Z,86.72
2022-10-28T06:42:39.679Z,86.88
2022-10-28T06:45:12.188Z,86.62
2022-10-28T06:47:46.010Z,86.38
2022-10-28T06:50:18.175Z,87.03
2022-10-28T06:52:50.306Z,87.11
2022-10-28T06:55:22.416Z,87.37
2022-10-28T06:57:55.132Z,88.45
2022-10-28T07:00:27.741Z,89.11
2022-10-28T07:03:05.889Z,90.32
2022-10-28T07:05:38.684Z,90.57
2022-10-28T07:08:11.093Z,90.69
2022-10-28T07:10:43.341Z,90.82
2022-10-28T07:13:15.476Z,90.82
2022-10-28T07:15:51.610Z,90.73
2022-10-28T07:18:24.583Z,91.18
2022-10-28T07:20:58.897Z,91.79
2022-10-28T07:23:33.054Z,92.27
2022-10-28T07:26:05.237Z,92.67
2022-10-28T07:28:37.264Z,92.48
2022-10-28T07:33:47.151Z,93.62
2022-10-28T07:36:19.283Z,93.32
2022-10-28T07:38:53.504Z,92.34
2022-10-28T07:41:26.603Z,92.33
2022-10-28T07:43:58.786Z,92.70
2022-10-28T07:46:30.943Z,93.27
2022-10-28T07:49:02.989Z,93.46
2022-10-28T07:51:35.249Z,93.60
2022-10-28T07:54:07.368Z,93.47
2022-10-28T07:56:39.435Z,93.68
2022-10-28T07:59:11.412Z,93.79
2022-10-28T08:01:43.455Z,94.34
2022-10-28T08:04:16.074Z,93.50
2022-10-28T08:06:48.711Z,93.03
2022-10-28T08:09:21.269Z,92.90
2022-10-28T08:11:56.164Z,92.58
2022-10-28T08:14:26.575Z,92.29
2022-10-28T08:16:58.610Z,92.45
2022-10-28T08:19:30.630Z,93.33
2022-10-28T08:22:03.014Z,92.33
2022-10-28T08:24:35.006Z,91.02
2022-10-28T08:27:07.521Z,91.84
2022-10-28T08:29:39.607Z,91.07
2022-10-28T08:32:12.237Z,90.84
2022-10-28T08:34:44.928Z,90.50
2022-10-28T08:37:17.554Z,90.57
2022-10-28T08:39:49.814Z,90.15
2022-10-28T08:42:36.789Z,89.75
2022-10-28T08:45:26.023Z,90.05
2022-10-28T08:48:09.737Z,90.11
2022-10-28T08:50:50.436Z,89.88
2022-10-28T08:53:29.552Z,89.82
2022-10-28T08:56:14.587Z,89.71
2022-10-28T08:58:48.317Z,88.60
2022-10-28T09:01:37.769Z,88.18
2022-10-28T09:04:21.618Z,87.55
2022-10-28T09:06:54.337Z,87.82
2022-10-28T09:09:26.712Z,87.35
2022-10-28T09:12:16.286Z,86.64
2022-10-28T09:15:14.885Z,86.48
2022-10-28T09:17:55.285Z,85.78
2022-10-28T09:20:40.508Z,85.29
2022-10-28T09:23:21.984Z,85.01
2022-10-28T09:26:11.896Z,84.48
2022-10-28T09:29:00.338Z,83.86
2022-10-28T09:31:37.507Z,83.14
2022-10-28T09:34:20.597Z,82.24
2022-10-28T09:36:57.473Z,82.00
2022-10-28T09:39:35.770Z,81.91
2022-10-28T09:42:12.046Z,81.65
2022-10-28T09:44:48.512Z,80.52
2022-10-28T09:47:24.721Z,80.21
2022-10-28T09:50:02.747Z,80.15
2022-10-28T09:52:41.664Z,79.71
2022-10-28T09:55:22.218Z,79.37
2022-10-28T09:57:55.056Z,80.19
2022-10-28T10:00:27.804Z,79.48
2022-10-28T10:03:01.382Z,80.09
2022-10-28T10:05:35.359Z,79.80
2022-10-28T10:08:08.533Z,80.16
2022-10-28T10:10:48.414Z,79.66
2022-10-28T10:13:25.177Z,80.03
2022-10-28T10:16:01.970Z,79.93
2022-10-28T10:18:35.267Z,80.54
2022-10-28T10:21:07.377Z,80.28
2022-10-28T10:26:18.868Z,80.29
2022-10-28T10:28:53.077Z,80.92
2022-10-28T10:31:29.907Z,80.67
2022-10-28T10:34:02.660Z,80.63
2022-10-28T10:36:35.395Z,80.23
2022-10-28T10:39:21.543Z,80.83
2022-10-28T10:41:55.570Z,80.90
2022-10-28T10:44:35.167Z,81.63
2022-10-28T10:47:25.489Z,81.00
2022-10-28T10:50:21.337Z,81.58
2022-10-28T10:52:56.652Z,81.67
2022-10-28T10:55:37.737Z,81.58
2022-10-28T10:58:19.601Z,81.34
2022-10-28T11:00:55.213Z,82.15
2022-10-28T11:03:30.879Z,81.86
2022-10-28T11:06:22.464Z,82.12
2022-10-28T11:09:01.313Z,81.62
2022-10-28T11:11:38.688Z,80.18
2022-10-28T11:14:25.552Z,79.37
2022-10-28T11:16:59.250Z,78.50
2022-10-28T11:19:33.913Z,77.56
2022-10-28T11:22:22.619Z,77.61
2022-10-28T11:25:19.306Z,77.09
2022-10-28T11:28:04.377Z,76.80
2022-10-28T11:30:47.566Z,75.94
2022-10-28T11:33:30.112Z,76.08
2022-10-28T11:36:22.252Z,76.23
2022-10-28T11:39:13.656Z,76.54
2022-10-28T11:41:57.181Z,76.82
2022-10-28T11:47:36.534Z,75.86
2022-10-28T11:50:29.052Z,74.90
2022-10-28T11:53:37.239Z,74.60
2022-10-28T11:56:19.317Z,74.50
2022-10-28T11:58:59.449Z,73.97
2022-10-28T12:01:46.014Z,73.89
2022-10-28T12:04:43.188Z,73.22
2022-10-28T12:07:34.080Z,71.03
2022-10-28T12:10:21.435Z,71.14
2022-10-28T12:13:03.075Z,70.29
2022-10-28T12:15:44.943Z,70.17
2022-10-28T12:18:25.571Z,70.62
2022-10-28T12:21:03.885Z,69.95
2022-10-28T12:23:39.350Z,69.90
2022-10-28T12:26:14.872Z,69.34
2022-10-28T12:28:51.463Z,68.38
2022-10-28T12:31:27.660Z,68.48
2022-10-28T12:34:03.043Z,68.25
2022-10-28T12:36:39.919Z,69.05
2022-10-28T12:39:19.486Z,68.56
2022-10-28T12:41:57.431Z,68.88
2022-10-28T12:44:31.032Z,69.39
2022-10-28T12:47:13.147Z,69.65
2022-10-28T12:49:55.667Z,69.89
2022-10-28T12:52:39.546Z,69.99
2022-10-28T12:55:20.191Z,70.27
2022-10-28T12:58:00.021Z,69.07
2022-10-28T13:00:36.732Z,69.47
2022-10-28T13:03:13.340Z,70.05
2022-10-28T13:05:52.520Z,69.81
2022-10-28T13:09:00.494Z,70.51
2022-10-28T13:11:54.393Z,69.07
2022-10-28T13:15:04.454Z,69.68
2022-10-28T13:17:48.582Z,69.61
2022-10-28T13:20:30.185Z,68.17
2022-10-28T13:23:17.433Z,67.80
2022-10-28T13:26:04.271Z,68.42
2022-10-28T13:28:44.203Z,68.28
2022-10-28T13:31:16.764Z,69.06
2022-10-28T13:33:56.899Z,68.41
2022-10-28T13:36:32.614Z,68.73
2022-10-28T13:39:22.340Z,68.12
2022-10-28T13:42:37.771Z,68.50
2022-10-28T13:45:50.492Z,68.80
2022-10-28T13:48:49.512Z,68.49
2022-10-28T13:51:48.155Z,69.09
2022-10-28T13:54:32.659Z,69.52
2022-10-28T13:57:13.293Z,69.69
2022-10-28T13:59:54.697Z,69.65
2022-10-28T14:02:36.184Z,69.84
2022-10-28T14:05:10.992Z,70.23
2022-10-28T14:07:56.477Z,70.55
2022-10-28T14:10:31.162Z,70.92
2022-10-28T14:13:06.036Z,71.13
2022-10-28T14:15:37.087Z,71.59
2022-10-28T14:21:16.802Z,72.58
2022-10-28T14:24:31.825Z,73.20
2022-10-28T14:27:31.102Z,73.71
2022-10-28T14:30:20.300Z,73.94
2022-10-28T14:33:31.699Z,74.12
2022-10-28T14:36:23.851Z,74.58
2022-10-28T14:39:19.099Z,74.96
2022-10-28T14:42:15.595Z,75.22
2022-10-28T14:45:20.972Z,75.59
2022-10-28T14:48:12.469Z,75.82
2022-10-28T14:50:48.131Z,76.28
2022-10-28T14:53:25.511Z,76.32
2022-10-28T14:56:04.273Z,76.70
2022-10-28T14:58:41.575Z,77.07
2022-10-28T15:01:27.333Z,77.25
2022-10-28T15:04:02.493Z,77.47
2022-10-28T15:06:40.666Z,77.84
2022-10-28T15:09:20.349Z,77.65
2022-10-28T15:11:57.293Z,77.88
2022-10-28T15:14:36.772Z,78.15
2022-10-28T15:17:17.308Z,78.41
2022-10-28T15:19:52.160Z,78.61
2022-10-28T15:22:26.534Z,78.61
2022-10-28T15:25:01.673Z,78.58
2022-10-28T15:27:36.686Z,78.78
2022-10-28T15:30:17.018Z,78.87
2022-10-28T15:32:49.128Z,78.79
2022-10-28T15:35:40.893Z,79.10
2022-10-28T15:38:38.246Z,78.96
2022-10-28T15:41:44.081Z,79.22
2022-10-28T15:44:35.556Z,79.24
2022-10-28T15:47:27.982Z,79.19
2022-10-28T15:50:07.031Z,79.29
2022-10-28T15:52:41.154Z,79.58
2022-10-28T15:58:41.757Z,79.77
2022-10-28T16:01:31.489Z,79.97
2022-10-28T16:04:03.920Z,79.70
2022-10-28T16:06:38.061Z,80.06
2022-10-28T16:09:24.987Z,80.31
2022-10-28T16:12:01.721Z,80.23
2022-10-28T16:14:40.589Z,80.31
2022-10-28T16:17:19.385Z,80.26
2022-10-28T16:19:56.810Z,80.42
2022-10-28T16:22:31.825Z,80.71
2022-10-28T16:25:02.322Z,80.71
2022-10-28T16:27:35.110Z,81.07
2022-10-28T16:30:09.173Z,81.06
2022-10-28T16:32:43.880Z,81.18
2022-10-28T16:35:16.758Z,81.47
2022-10-28T16:37:54.796Z,81.32
2022-10-28T16:40:50.280Z,80.88
2022-10-28T16:43:22.056Z,81.00
2022-10-28T16:45:55.451Z,81.01
2022-10-28T16:48:29.416Z,80.79
2022-10-28T16:51:04.096Z,80.84
2022-10-28T16:53:36.604Z,81.06
2022-10-28T16:56:13.581Z,81.47
2022-10-28T16:58:47.600Z,81.66
2022-10-28T17:01:22.390Z,82.09
2022-10-28T17:03:54.844Z,82.43
2022-10-28T17:06:26.990Z,82.68
2022-10-28T17:09:03.578Z,83.02
2022-10-28T17:11:36.071Z,82.95
2022-10-28T17:14:08.296Z,83.06
2022-10-28T17:16:43.215Z,83.05
2022-10-28T17:19:15.758Z,83.34
2022-10-28T17:21:47.851Z,83.70
2022-10-28T17:24:20.492Z,83.60
2022-10-28T17:26:53.263Z,83.76
2022-10-28T17:29:25.537Z,83.58
2022-10-28T17:31:57.844Z,83.24
2022-10-28T17:34:30.204Z,82.90
2022-10-28T17:37:02.207Z,82.63
2022-10-28T17:39:34.500Z,82.88
2022-10-28T17:42:07.020Z,83.01
2022-10-28T17:44:39.814Z,82.64
2022-10-28T17:47:13.168Z,82.66
2022-10-28T17:49:45.337Z,82.47
2022-10-28T17:52:17.763Z,82.74
2022-10-28T17:54:51.204Z,82.85
2022-10-28T17:57:23.440Z,83.46
2022-10-28T17:59:55.963Z,83.57
2022-10-28T18:02:28.689Z,83.88
2022-10-28T18:05:00.982Z,84.86
2022-10-28T18:07:33.205Z,85.22
2022-10-28T18:10:06.335Z,85.42
2022-10-28T18:12:38.785Z,85.33
2022-10-28T18:15:12.417Z,85.23
2022-10-28T18:17:44.860Z,85.10
2022-10-28T18:20:19.044Z,85.51
2022-10-28T18:22:50.519Z,85.29
2022-10-28T18:25:22.506Z,84.99
2022-10-28T18:27:54.986Z,84.89
2022-10-28T18:30:27.326Z,84.98
2022-10-28T18:33:00.863Z,85.34
2022-10-28T18:35:35.340Z,84.80
2022-10-28T18:38:07.703Z,85.23
2022-10-28T18:40:46.432Z,84.89
2022-10-28T18:43:19.606Z,84.91
2022-10-28T18:45:53.659Z,84.48
2022-10-28T18:48:26.095Z,84.26
2022-10-28T18:51:02.376Z,84.01
2022-10-28T18:53:38.239Z,84.75
2022-10-28T18:56:13.921Z,84.58
2022-10-28T18:58:48.413Z,85.22
2022-10-28T19:01:23.148Z,84.87
2022-10-28T19:03:57.305Z,85.17
2022-10-28T19:06:32.675Z,84.68
2022-10-28T19:09:07.635Z,84.63
2022-10-28T19:11:40.955Z,84.53
2022-10-28T19:14:13.841Z,84.14
2022-10-28T19:16:46.375Z,84.94
2022-10-28T19:19:19.525Z,84.78
2022-10-28T19:21:52.595Z,85.32
2022-10-28T19:24:26.667Z,85.77
2022-10-28T19:26:59.441Z,85.39
2022-10-28T19:29:32.850Z,85.38
2022-10-28T19:32:06.946Z,84.68
2022-10-28T19:34:40.844Z,84.56
2022-10-28T19:37:13.758Z,84.16
2022-10-28T19:39:47.007Z,84.00
2022-10-28T19:42:19.355Z,83.89
2022-10-28T19:44:52.037Z,83.91
2022-10-28T19:47:24.556Z,83.76
2022-10-28T19:49:56.734Z,83.76
2022-10-28T19:52:28.920Z,83.12
2022-10-28T19:55:01.075Z,83.26
2022-10-28T19:57:33.651Z,82.91
2022-10-28T20:00:07.039Z,82.59
2022-10-28T20:02:44.022Z,81.84
2022-10-28T20:05:16.740Z,81.64
2022-10-28T20:07:48.926Z,81.83
2022-10-28T20:10:21.832Z,80.91
2022-10-28T20:12:54.223Z,80.46
2022-10-28T20:15:26.822Z,80.35
2022-10-28T20:17:58.939Z,80.05
2022-10-28T20:20:31.238Z,79.39
2022-10-28T20:23:03.317Z,79.70
2022-10-28T20:25:35.323Z,79.72
2022-10-28T20:28:07.716Z,79.60
2022-10-28T20:30:39.841Z,79.59
2022-10-28T20:33:12.009Z,79.57
2022-10-28T20:35:44.244Z,79.66
2022-10-28T20:38:16.815Z,79.39
2022-10-28T20:40:51.113Z,79.28
2022-10-28T20:43:25.196Z,78.88
2022-10-28T20:45:59.858Z,78.52
2022-10-28T20:48:32.456Z,79.12
2022-10-28T20:51:05.127Z,79.14
2022-10-28T20:53:37.526Z,78.78
2022-10-28T20:56:15.884Z,78.47
2022-10-28T20:58:48.311Z,79.22
2022-10-28T21:01:22.234Z,78.76
2022-10-28T21:03:57.584Z,78.31
2022-10-28T21:06:31.507Z,78.64
2022-10-28T21:09:05.165Z,77.98
2022-10-28T21:11:37.277Z,78.00
2022-10-28T21:14:09.748Z,77.89
2022-10-28T21:16:42.261Z,77.61
2022-10-28T21:19:14.307Z,77.70
2022-10-28T21:21:46.224Z,77.70
2022-10-28T21:24:18.196Z,77.64
2022-10-28T21:26:52.162Z,77.67
2022-10-28T21:29:24.633Z,77.43
2022-10-28T21:31:56.689Z,77.11
2022-10-28T21:34:28.891Z,77.12
2022-10-28T21:37:01.258Z,77.51
2022-10-28T21:39:33.749Z,77.07
2022-10-28T21:42:06.313Z,77.10
2022-10-28T21:44:38.287Z,76.69
2022-10-28T21:47:10.363Z,76.36
2022-10-28T21:49:42.553Z,76.55
2022-10-28T21:52:14.432Z,76.57
2022-10-28T21:54:46.952Z,76.71
2022-10-28T21:57:19.033Z,76.52
2022-10-28T21:59:51.052Z,76.60
2022-10-28T22:02:23.911Z,76.39
2022-10-28T22:04:56.135Z,76.81
2022-10-28T22:07:28.574Z,76.98
2022-10-28T22:10:00.573Z,77.33
2022-10-28T22:12:33.284Z,77.27
2022-10-28T22:15:05.921Z,77.76
2022-10-28T22:17:38.001Z,78.23
2022-10-28T22:20:11.537Z,78.79
2022-10-28T22:22:43.726Z,78.68
2022-10-28T22:25:18.405Z,78.37
2022-10-28T22:27:50.774Z,77.86
2022-10-28T22:30:22.805Z,77.79
2022-10-28T22:32:55.092Z,77.30
2022-10-28T22:35:27.668Z,77.45
2022-10-28T22:37:59.931Z,77.31
2022-10-28T22:40:31.968Z,77.12
2022-10-28T22:43:03.964Z,76.84
2022-10-28T22:45:36.034Z,76.72
2022-10-28T22:48:08.861Z,76.39
2022-10-28T22:50:40.915Z,76.75
2022-10-28T22:53:12.912Z,76.84
2022-10-28T22:55:45.261Z,76.64
2022-10-28T22:58:18.334Z,76.51
2022-10-28T23:00:50.489Z,76.57
2022-10-28T23:03:22.714Z,76.94
2022-10-28T23:05:55.167Z,76.66
2022-10-28T23:08:27.264Z,76.76
2022-10-28T23:10:59.284Z,76.40
2022-10-28T23:13:31.386Z,76.37
2022-10-28T23:16:07.369Z,76.31
2022-10-28T23:18:40.149Z,76.41
2022-10-28T23:21:15.015Z,76.23
2022-10-28T23:23:51.402Z,75.95
2022-10-28T23:26:26.641Z,76.01
2022-10-28T23:29:00.705Z,75.98
2022-10-28T23:31:32.823Z,75.85
2022-10-28T23:34:04.828Z,75.25
2022-10-28T23:36:37.354Z,75.38
2022-10-28T23:39:09.987Z,75.36
2022-10-28T23:41:42.099Z,75.69
2022-10-28T23:44:14.727Z,75.82
2022-10-28T23:46:47.231Z,75.62
2022-10-28T23:49:19.231Z,75.68
2022-10-28T23:51:51.414Z,75.81
2022-10-28T23:54:23.360Z,76.05
2022-10-28T23:56:55.413Z,76.50
2022-10-28T23:59:27.630Z,76.44
